TAF and METAR

METAR for Astana Airport

UACC 011600Z 17004MPS CAVOK 03/M01 Q1008 R22/0///70 NOSIG RMK QFE725/0967
Report created 1. apr 18:00
wind 8 knots from S (170°) Clear sky Temperature 3° with dewpoint at -1° (Humidity 74.96%) Pressure 1008 hPa not measurable mm of clear and dry is covering not reported of runway 22 and friction coefficient is 0.7

TAF for Astana Airport

TAF AMD UACC 011600Z 0116/0212 16007MPS 6000 BKN010 BKN020 TX05/0210Z TN02/0201Z TEMPO 0116/0201 19010MPS 3100 SHRA BKN005 BKN030CB BECMG 0201/0203 21010MPS TEMPO 0201/0212 21010G15MPS 2000 SHRA BKN005 BKN030CB
Report created 1. apr 18:00

between 1. apr 18:00 - 2. apr 14:00

wind 14 knots from SSE (160°) visibility 6000 meters broken clouds (~75% cover) at 1000 feet broken clouds (~75% cover) at 2000 feet Max temperature 05° expected tomorrow at around 12 o'clock Min temperature 02° expected tomorrow at around 03 o'clock

temporarily between 1. apr 18:00 - 2. apr 03:00

wind 20 knots from S (190°) visibility 3100 meters rain showers broken clouds (~75% cover) at 500 feet broken clouds (~75% cover) at 3000 feet of type cumulonimbus

becoming between 2. apr 03:00 - 2. apr 05:00

wind 20 knots from SSW (210°)

temporarily between 2. apr 03:00 - 2. apr 14:00

wind 20 knots from SSW (210°) with gusts up to 30 knots visibility 2000 meters rain showers broken clouds (~75% cover) at 500 feet broken clouds (~75% cover) at 3000 feet of type cumulonimbus
Astana Airport in Kazakhstan at 355m

Latest 5 airports